createdAt,value
2022-09-14T00:01:33.334Z,16.28
2022-09-14T00:04:06.579Z,16.51
2022-09-14T00:06:34.757Z,16.65
2022-09-14T00:09:02.583Z,16.55
2022-09-14T00:11:32.015Z,16.54
2022-09-14T00:14:00.772Z,16.56
2022-09-14T00:16:30.472Z,16.74
2022-09-14T00:19:06.484Z,16.68
2022-09-14T00:21:44.317Z,16.77
2022-09-14T00:24:11.993Z,16.82
2022-09-14T00:26:38.891Z,16.83
2022-09-14T00:29:06.369Z,16.75
2022-09-14T00:31:35.816Z,16.89
2022-09-14T00:34:04.203Z,16.68
2022-09-14T00:36:32.711Z,16.60
2022-09-14T00:39:00.965Z,16.64
2022-09-14T00:41:32.066Z,16.73
2022-09-14T00:44:06.285Z,16.86
2022-09-14T00:46:37.901Z,16.40
2022-09-14T00:49:22.994Z,16.37
2022-09-14T00:51:52.919Z,16.38
2022-09-14T00:54:20.577Z,16.17
2022-09-14T00:56:48.918Z,16.20
2022-09-14T00:59:21.184Z,16.14
2022-09-14T01:01:49.389Z,16.50
2022-09-14T01:04:17.553Z,16.77
2022-09-14T01:07:00.623Z,16.85
2022-09-14T01:09:57.618Z,16.75
2022-09-14T01:12:48.449Z,16.60
2022-09-14T01:15:19.135Z,16.49
2022-09-14T01:18:14.605Z,16.43
2022-09-14T01:21:07.481Z,16.35
2022-09-14T01:23:53.056Z,16.36
2022-09-14T01:26:40.060Z,16.47
2022-09-14T01:29:16.156Z,16.74
2022-09-14T01:31:49.147Z,17.11
2022-09-14T01:34:36.938Z,17.06
2022-09-14T01:37:13.360Z,16.86
2022-09-14T01:39:55.096Z,16.28
2022-09-14T01:42:25.590Z,16.16
2022-09-14T01:44:57.364Z,16.12
2022-09-14T01:47:39.424Z,16.02
2022-09-14T01:50:20.523Z,16.28
2022-09-14T01:52:55.871Z,16.27
2022-09-14T01:55:32.984Z,16.13
2022-09-14T01:58:14.681Z,16.16
2022-09-14T02:00:46.149Z,16.23
2022-09-14T02:03:18.924Z,16.21
2022-09-14T02:06:02.934Z,16.05
2022-09-14T02:08:31.153Z,15.90
2022-09-14T02:10:59.190Z,15.94
2022-09-14T02:13:27.058Z,15.85
2022-09-14T02:15:54.158Z,15.94
2022-09-14T02:18:22.025Z,16.02
2022-09-14T02:21:17.602Z,16.04
2022-09-14T02:23:44.869Z,16.07
2022-09-14T02:26:11.989Z,15.58
2022-09-14T02:28:39.056Z,15.69
2022-09-14T02:31:54.651Z,16.16
2022-09-14T02:34:32.327Z,16.29
2022-09-14T02:37:09.867Z,16.28
2022-09-14T02:40:34.094Z,16.06
2022-09-14T02:43:27.379Z,15.84
2022-09-14T02:46:13.534Z,16.09
2022-09-14T02:49:04.882Z,15.82
2022-09-14T02:51:38.246Z,15.52
2022-09-14T02:54:14.802Z,15.62
2022-09-14T02:56:42.308Z,15.65
2022-09-14T02:59:11.308Z,15.51
2022-09-14T03:01:38.635Z,15.48
2022-09-14T03:04:05.552Z,15.49
2022-09-14T03:06:32.852Z,15.53
2022-09-14T03:09:00.177Z,15.64
2022-09-14T03:11:27.018Z,15.46
2022-09-14T03:13:53.992Z,15.33
2022-09-14T03:16:20.946Z,15.15
2022-09-14T03:18:48.013Z,15.27
2022-09-14T03:21:17.517Z,15.71
2022-09-14T03:23:50.544Z,15.84
2022-09-14T03:26:20.296Z,15.76
2022-09-14T03:28:55.561Z,15.66
2022-09-14T03:31:23.494Z,15.36
2022-09-14T03:33:55.331Z,15.13
2022-09-14T03:36:22.971Z,15.10
2022-09-14T03:38:52.196Z,15.03
2022-09-14T03:41:20.484Z,14.79
2022-09-14T03:43:47.598Z,14.89
2022-09-14T03:46:17.024Z,15.00
2022-09-14T03:48:44.554Z,15.31
2022-09-14T03:51:13.431Z,15.18
2022-09-14T03:53:41.438Z,15.09
2022-09-14T03:56:10.707Z,15.33
2022-09-14T03:58:38.363Z,15.19
2022-09-14T04:01:07.587Z,14.76
2022-09-14T04:03:34.830Z,14.96
2022-09-14T04:06:05.458Z,15.02
2022-09-14T04:08:37.370Z,15.14
2022-09-14T04:11:19.090Z,15.28
2022-09-14T04:13:46.871Z,15.18
2022-09-14T04:16:15.131Z,15.64
2022-09-14T04:18:42.354Z,15.79
2022-09-14T04:21:19.151Z,16.12
2022-09-14T04:26:34.558Z,15.88
2022-09-14T04:29:01.471Z,15.90
2022-09-14T04:31:28.915Z,15.93
2022-09-14T04:33:57.277Z,15.91
2022-09-14T04:36:28.680Z,16.08
2022-09-14T04:38:58.215Z,16.26
2022-09-14T04:41:26.297Z,16.51
2022-09-14T04:43:54.189Z,16.36
2022-09-14T04:46:24.318Z,16.62
2022-09-14T04:48:51.639Z,16.66
2022-09-14T04:51:21.343Z,17.14
2022-09-14T04:53:51.098Z,17.54
2022-09-14T04:56:19.857Z,18.11
2022-09-14T04:58:51.633Z,18.91
2022-09-14T05:01:24.407Z,19.24
2022-09-14T05:03:52.615Z,20.60
2022-09-14T05:06:22.814Z,22.30
2022-09-14T05:08:51.219Z,23.75
2022-09-14T05:11:21.604Z,25.38
2022-09-14T05:13:50.222Z,26.85
2022-09-14T05:16:22.969Z,28.27
2022-09-14T05:18:51.109Z,29.57
2022-09-14T05:21:20.464Z,30.40
2022-09-14T05:23:48.239Z,30.71
2022-09-14T05:26:15.583Z,31.70
2022-09-14T05:28:42.510Z,32.01
2022-09-14T05:31:13.280Z,32.46
2022-09-14T05:33:40.452Z,33.23
2022-09-14T05:36:09.039Z,34.10
2022-09-14T05:38:38.293Z,34.34
2022-09-14T05:41:06.940Z,32.62
2022-09-14T05:43:34.160Z,31.17
2022-09-14T05:46:02.747Z,29.66
2022-09-14T05:48:36.285Z,30.90
2022-09-14T05:51:07.577Z,30.53
2022-09-14T05:53:34.695Z,29.97
2022-09-14T05:56:01.645Z,29.31
2022-09-14T05:58:28.546Z,27.46
2022-09-14T06:00:55.695Z,25.79
2022-09-14T06:03:23.240Z,24.76
2022-09-14T06:05:50.148Z,24.38
2022-09-14T06:08:17.138Z,25.23
2022-09-14T06:10:44.485Z,25.82
2022-09-14T06:13:11.409Z,26.92
2022-09-14T06:15:38.744Z,27.76
2022-09-14T06:18:05.678Z,28.71
2022-09-14T06:20:32.543Z,30.59
2022-09-14T06:22:59.459Z,30.71
2022-09-14T06:25:28.214Z,29.84
2022-09-14T06:27:55.311Z,29.98
2022-09-14T06:30:22.533Z,30.17
2022-09-14T06:32:49.507Z,30.92
2022-09-14T06:35:16.558Z,31.55
2022-09-14T06:37:43.446Z,31.88
2022-09-14T06:40:10.931Z,30.36
2022-09-14T06:42:37.851Z,31.23
2022-09-14T06:45:06.025Z,29.64
2022-09-14T06:47:33.736Z,28.98
2022-09-14T06:50:00.742Z,29.64
2022-09-14T06:52:30.556Z,29.95
2022-09-14T06:55:00.522Z,28.84
2022-09-14T06:57:27.382Z,29.15
2022-09-14T06:59:54.275Z,31.23
2022-09-14T07:02:21.387Z,32.73
2022-09-14T07:04:48.286Z,34.07
2022-09-14T07:07:16.497Z,33.45
2022-09-14T07:09:43.412Z,32.05
2022-09-14T07:12:11.739Z,32.83
2022-09-14T07:14:38.724Z,32.50
2022-09-14T07:17:06.139Z,32.05
2022-09-14T07:19:33.187Z,31.88
2022-09-14T07:22:00.987Z,31.24
2022-09-14T07:24:27.982Z,31.05
2022-09-14T07:26:54.902Z,31.06
2022-09-14T07:29:22.102Z,32.30
2022-09-14T07:31:51.511Z,31.33
2022-09-14T07:34:18.767Z,30.73
2022-09-14T07:36:46.261Z,31.62
2022-09-14T07:39:17.713Z,31.96
2022-09-14T07:41:44.948Z,32.78
2022-09-14T07:44:15.254Z,32.65
2022-09-14T07:46:44.067Z,32.50
2022-09-14T07:49:12.139Z,32.65
2022-09-14T07:51:40.327Z,32.03
2022-09-14T07:54:08.997Z,33.37
2022-09-14T07:56:35.917Z,33.32
2022-09-14T07:59:30.836Z,33.31
2022-09-14T08:01:51.364Z,34.15
2022-09-14T08:04:18.297Z,33.98
2022-09-14T08:06:45.243Z,33.49
2022-09-14T08:09:12.390Z,33.71
2022-09-14T08:11:39.315Z,32.83
2022-09-14T08:14:12.043Z,32.97
2022-09-14T08:16:40.870Z,34.10
2022-09-14T08:19:21.115Z,34.04
2022-09-14T08:21:48.318Z,33.16
2022-09-14T08:24:18.254Z,33.67
2022-09-14T08:26:46.136Z,34.37
2022-09-14T08:29:14.535Z,35.52
2022-09-14T08:31:42.663Z,35.61
2022-09-14T08:34:09.629Z,35.56
2022-09-14T08:36:38.603Z,35.19
2022-09-14T08:39:09.302Z,34.65
2022-09-14T08:41:45.075Z,34.14
2022-09-14T08:44:11.829Z,34.70
2022-09-14T08:46:50.452Z,35.62
2022-09-14T08:49:26.239Z,34.91
2022-09-14T08:51:53.185Z,32.92
2022-09-14T08:54:20.095Z,31.44
2022-09-14T08:56:54.865Z,33.93
2022-09-14T08:59:40.208Z,35.37
2022-09-14T09:02:29.140Z,35.70
2022-09-14T09:05:07.702Z,35.24
2022-09-14T09:08:06.913Z,34.85
2022-09-14T09:10:35.520Z,33.25
2022-09-14T09:13:05.798Z,32.96
2022-09-14T09:15:51.783Z,33.47
2022-09-14T09:18:41.095Z,33.80
2022-09-14T09:21:40.361Z,33.91
2022-09-14T09:24:26.185Z,35.46
2022-09-14T09:26:53.337Z,36.07
2022-09-14T09:29:20.279Z,36.69
2022-09-14T09:32:08.961Z,36.23
2022-09-14T09:34:38.878Z,36.49
2022-09-14T09:37:16.979Z,34.28
2022-09-14T09:39:44.729Z,34.61
2022-09-14T09:42:22.205Z,34.53
2022-09-14T09:45:01.504Z,33.96
2022-09-14T09:47:43.592Z,35.91
2022-09-14T09:50:13.757Z,35.63
2022-09-14T09:52:54.004Z,35.39
2022-09-14T09:55:23.788Z,33.33
2022-09-14T09:57:50.654Z,32.12
2022-09-14T10:00:29.948Z,31.18
2022-09-14T10:03:01.559Z,31.92
2022-09-14T10:05:32.364Z,33.71
2022-09-14T10:08:09.336Z,33.97
2022-09-14T10:10:39.313Z,33.82
2022-09-14T10:13:38.175Z,33.12
2022-09-14T10:16:18.042Z,32.87
2022-09-14T10:18:51.038Z,31.67
2022-09-14T10:21:23.008Z,32.91
2022-09-14T10:24:21.656Z,33.23
2022-09-14T10:26:48.651Z,34.36
2022-09-14T10:29:27.221Z,33.68
2022-09-14T10:32:02.229Z,33.17
2022-09-14T10:34:29.427Z,32.40
2022-09-14T10:37:54.286Z,32.27
2022-09-14T10:40:32.405Z,33.57
2022-09-14T10:43:22.503Z,33.68
2022-09-14T10:45:59.259Z,34.32
2022-09-14T10:48:34.883Z,33.50
2022-09-14T10:51:20.433Z,33.67
2022-09-14T10:53:56.703Z,33.36
2022-09-14T10:56:35.033Z,34.32
2022-09-14T10:59:01.836Z,34.83
2022-09-14T11:01:28.712Z,34.24
2022-09-14T11:04:20.263Z,35.11
2022-09-14T11:06:59.013Z,33.79
2022-09-14T11:09:43.891Z,32.31
2022-09-14T11:12:42.592Z,32.64
2022-09-14T11:15:24.297Z,33.19
2022-09-14T11:17:51.214Z,34.37
2022-09-14T11:20:26.262Z,33.71
2022-09-14T11:23:11.323Z,33.27
2022-09-14T11:25:56.909Z,32.19
2022-09-14T11:28:45.022Z,32.97
2022-09-14T11:31:21.334Z,33.60
2022-09-14T11:34:11.226Z,34.74
2022-09-14T11:36:44.777Z,34.54
2022-09-14T11:39:21.334Z,35.89
2022-09-14T11:42:04.244Z,36.47
2022-09-14T11:44:37.941Z,35.65
2022-09-14T11:47:14.070Z,34.24
2022-09-14T11:49:47.655Z,35.56
2022-09-14T11:52:21.035Z,36.31
2022-09-14T11:54:50.380Z,36.59
2022-09-14T11:57:27.812Z,35.40
2022-09-14T12:00:00.300Z,34.49
2022-09-14T12:02:27.757Z,34.61
2022-09-14T12:05:07.261Z,34.07
2022-09-14T12:07:40.276Z,35.70
2022-09-14T12:10:16.800Z,36.78
2022-09-14T12:12:55.812Z,36.55
2022-09-14T12:15:26.225Z,38.20
2022-09-14T12:18:14.950Z,37.39
2022-09-14T12:21:02.867Z,34.54
2022-09-14T12:23:29.746Z,35.28
2022-09-14T12:26:05.910Z,35.12
2022-09-14T12:28:35.657Z,34.63
2022-09-14T12:31:05.556Z,34.35
2022-09-14T12:33:32.463Z,35.12
2022-09-14T12:36:03.042Z,35.44
2022-09-14T12:38:29.922Z,35.64
2022-09-14T12:41:01.995Z,36.51
2022-09-14T12:43:35.007Z,36.57
2022-09-14T12:46:30.414Z,36.71
2022-09-14T12:49:16.820Z,36.87
2022-09-14T12:51:49.027Z,37.77
2022-09-14T12:54:26.493Z,37.07
2022-09-14T12:57:00.980Z,36.05
2022-09-14T12:59:42.746Z,32.30
2022-09-14T13:02:12.681Z,33.08
2022-09-14T13:04:42.066Z,34.13
2022-09-14T13:07:18.263Z,33.92
2022-09-14T13:09:57.229Z,34.04
2022-09-14T13:12:34.961Z,32.18
2022-09-14T13:15:25.697Z,31.04
2022-09-14T13:18:16.918Z,31.71
2022-09-14T13:21:12.206Z,31.53
2022-09-14T13:23:42.094Z,30.15
2022-09-14T13:26:17.072Z,30.35
2022-09-14T13:28:46.860Z,29.00
2022-09-14T13:31:18.955Z,29.32
2022-09-14T13:33:52.182Z,28.67
2022-09-14T13:36:26.026Z,29.04
2022-09-14T13:38:54.405Z,28.51
2022-09-14T13:41:23.491Z,29.02
2022-09-14T13:43:54.464Z,28.37
2022-09-14T13:46:26.509Z,28.52
2022-09-14T13:48:53.798Z,27.87
2022-09-14T13:51:27.263Z,28.06
2022-09-14T13:53:57.499Z,27.99
2022-09-14T13:56:31.321Z,27.77
2022-09-14T13:59:20.676Z,28.14
2022-09-14T14:01:59.649Z,28.22
2022-09-14T14:04:34.940Z,27.91
2022-09-14T14:07:07.046Z,27.32
2022-09-14T14:09:45.242Z,28.00
2022-09-14T14:12:23.049Z,27.96
2022-09-14T14:14:58.636Z,27.86
2022-09-14T14:17:28.502Z,28.08
2022-09-14T14:20:00.966Z,27.32
2022-09-14T14:22:31.738Z,27.18
2022-09-14T14:25:14.645Z,27.28
2022-09-14T14:27:47.827Z,27.55
2022-09-14T14:30:18.277Z,27.85
2022-09-14T14:32:51.074Z,27.42
2022-09-14T14:35:22.888Z,27.53
2022-09-14T14:37:50.333Z,28.12
2022-09-14T14:40:18.280Z,28.61
2022-09-14T14:42:46.081Z,28.81
2022-09-14T14:45:21.420Z,27.82
2022-09-14T14:47:50.698Z,27.50
2022-09-14T14:50:22.104Z,27.26
2022-09-14T14:52:50.369Z,26.72
2022-09-14T14:55:17.850Z,26.89
2022-09-14T14:57:44.730Z,27.35
2022-09-14T15:00:18.007Z,27.38
2022-09-14T15:02:45.227Z,27.90
2022-09-14T15:05:13.088Z,27.77
2022-09-14T15:07:40.663Z,27.06
2022-09-14T15:10:09.736Z,26.54
2022-09-14T15:12:36.647Z,26.69
2022-09-14T15:15:03.897Z,27.30
2022-09-14T15:17:30.868Z,27.00
2022-09-14T15:19:57.777Z,26.94
2022-09-14T15:22:25.313Z,27.22
2022-09-14T15:24:52.326Z,27.18
2022-09-14T15:27:19.218Z,27.06
2022-09-14T15:29:46.193Z,26.68
2022-09-14T15:32:13.196Z,26.85
2022-09-14T15:34:41.098Z,27.30
2022-09-14T15:37:09.760Z,27.23
2022-09-14T15:39:36.912Z,26.98
2022-09-14T15:42:04.111Z,26.39
2022-09-14T15:44:32.980Z,25.71
2022-09-14T15:46:59.919Z,25.57
2022-09-14T15:49:26.856Z,25.81
2022-09-14T15:51:56.249Z,26.01
2022-09-14T15:54:25.197Z,26.10
2022-09-14T15:56:54.950Z,26.01
2022-09-14T15:59:22.763Z,26.08
2022-09-14T16:01:49.939Z,26.13
2022-09-14T16:04:17.697Z,25.52
2022-09-14T16:06:45.207Z,24.96
2022-09-14T16:09:14.234Z,24.40
2022-09-14T16:11:41.559Z,24.14
2022-09-14T16:14:10.620Z,24.66
2022-09-14T16:16:38.821Z,24.97
2022-09-14T16:19:08.855Z,24.96
2022-09-14T16:21:36.713Z,24.66
2022-09-14T16:24:07.324Z,24.71
2022-09-14T16:26:36.329Z,24.63
2022-09-14T16:29:04.743Z,23.91
2022-09-14T16:31:34.730Z,23.58
2022-09-14T16:34:04.959Z,23.76
2022-09-14T16:36:35.083Z,23.80
2022-09-14T16:39:04.584Z,23.82
2022-09-14T16:41:32.431Z,23.92
2022-09-14T16:44:01.636Z,23.46
2022-09-14T16:46:30.367Z,23.49
2022-09-14T16:49:00.689Z,23.08
2022-09-14T16:51:29.831Z,23.01
2022-09-14T16:53:58.070Z,23.35
2022-09-14T16:56:27.900Z,23.58
2022-09-14T16:58:56.073Z,23.42
2022-09-14T17:01:24.678Z,23.38
2022-09-14T17:03:55.324Z,23.42
2022-09-14T17:06:26.683Z,23.75
2022-09-14T17:08:57.772Z,23.92
2022-09-14T17:11:24.653Z,24.14
2022-09-14T17:13:52.520Z,24.27
2022-09-14T17:16:21.405Z,24.15
2022-09-14T17:18:50.657Z,24.12
2022-09-14T17:21:23.528Z,24.09
2022-09-14T17:23:50.552Z,24.15
2022-09-14T17:26:19.396Z,24.05
2022-09-14T17:28:49.586Z,23.34
2022-09-14T17:31:21.405Z,23.05
2022-09-14T17:33:49.296Z,23.14
2022-09-14T17:36:17.103Z,22.72
2022-09-14T17:38:44.740Z,22.66
2022-09-14T17:41:22.474Z,22.64
2022-09-14T17:43:54.309Z,23.13
2022-09-14T17:46:24.659Z,23.41
2022-09-14T17:48:52.280Z,23.35
2022-09-14T17:51:21.722Z,23.67
2022-09-14T17:53:51.150Z,23.79
2022-09-14T17:56:20.729Z,23.54
2022-09-14T17:58:49.516Z,23.35
2022-09-14T18:01:19.612Z,23.44
2022-09-14T18:03:52.100Z,23.48
2022-09-14T18:06:19.933Z,23.39
2022-09-14T18:08:47.302Z,23.35
2022-09-14T18:11:17.117Z,23.42
2022-09-14T18:13:48.046Z,23.35
2022-09-14T18:16:16.390Z,23.43
2022-09-14T18:18:43.750Z,22.90
2022-09-14T18:21:11.511Z,22.66
2022-09-14T18:23:38.354Z,22.59
2022-09-14T18:26:07.071Z,22.63
2022-09-14T18:28:35.626Z,22.57
2022-09-14T18:31:10.411Z,22.65
2022-09-14T18:33:37.769Z,22.65
2022-09-14T18:36:06.290Z,22.63
2022-09-14T18:38:33.453Z,22.62
2022-09-14T18:41:07.891Z,22.52
2022-09-14T18:43:35.480Z,22.32
2022-09-14T18:46:07.312Z,22.28
2022-09-14T18:48:35.317Z,21.86
2022-09-14T18:51:05.006Z,22.01
2022-09-14T18:53:32.346Z,22.12
2022-09-14T18:56:03.557Z,22.20
2022-09-14T18:58:35.448Z,22.29
2022-09-14T19:01:03.417Z,22.24
2022-09-14T19:03:31.650Z,22.24
2022-09-14T19:06:03.783Z,22.12
2022-09-14T19:08:30.656Z,21.90
2022-09-14T19:10:58.330Z,21.86
2022-09-14T19:13:25.253Z,21.96
2022-09-14T19:15:52.202Z,22.11
2022-09-14T19:18:19.145Z,22.04
2022-09-14T19:21:06.036Z,22.04
2022-09-14T19:23:34.258Z,22.08
2022-09-14T19:26:06.351Z,21.96
2022-09-14T19:28:34.789Z,22.12
2022-09-14T19:31:09.800Z,21.75
2022-09-14T19:33:38.011Z,21.62
2022-09-14T19:36:10.007Z,21.56
2022-09-14T19:38:37.574Z,21.60
2022-09-14T19:41:05.900Z,21.60
2022-09-14T19:43:34.164Z,21.79
2022-09-14T19:46:03.509Z,21.85
2022-09-14T19:48:30.708Z,21.89
2022-09-14T19:51:02.070Z,21.96
2022-09-14T19:53:30.923Z,21.75
2022-09-14T19:55:58.358Z,21.63
2022-09-14T19:58:28.847Z,21.79
2022-09-14T20:00:56.980Z,21.55
2022-09-14T20:03:24.605Z,21.68
2022-09-14T20:06:11.493Z,21.68
2022-09-14T20:08:38.480Z,21.82
2022-09-14T20:11:11.091Z,21.71
2022-09-14T20:13:39.115Z,21.60
2022-09-14T20:16:36.908Z,21.58
2022-09-14T20:19:13.151Z,21.79
2022-09-14T20:21:41.544Z,21.87
2022-09-14T20:24:16.118Z,21.44
2022-09-14T20:26:49.511Z,21.54
2022-09-14T20:29:18.117Z,21.58
2022-09-14T20:31:45.985Z,21.59
2022-09-14T20:34:14.369Z,21.69
2022-09-14T20:36:41.451Z,21.71
2022-09-14T20:39:10.670Z,21.56
2022-09-14T20:41:37.713Z,21.56
2022-09-14T20:44:05.282Z,21.11
2022-09-14T20:46:35.321Z,21.27
2022-09-14T20:49:04.522Z,21.52
2022-09-14T20:51:31.913Z,21.59
2022-09-14T20:53:58.807Z,21.51
2022-09-14T20:56:28.284Z,20.01
2022-09-14T20:59:12.066Z,19.39
2022-09-14T21:01:46.583Z,19.34
2022-09-14T21:04:16.611Z,19.64
2022-09-14T21:06:46.669Z,19.63
2022-09-14T21:09:15.150Z,19.83
2022-09-14T21:11:42.713Z,19.70
2022-09-14T21:14:09.632Z,19.90
2022-09-14T21:16:42.805Z,19.91
2022-09-14T21:19:20.381Z,19.85
2022-09-14T21:21:48.743Z,19.74
2022-09-14T21:24:17.134Z,19.89
2022-09-14T21:26:44.447Z,20.04
2022-09-14T21:29:17.587Z,19.97
2022-09-14T21:31:45.107Z,19.88
2022-09-14T21:34:12.808Z,20.09
2022-09-14T21:36:42.981Z,20.17
2022-09-14T21:39:16.749Z,20.35
2022-09-14T21:41:44.974Z,20.42
2022-09-14T21:44:13.424Z,20.56
2022-09-14T21:46:40.667Z,20.63
2022-09-14T21:49:21.589Z,20.39
2022-09-14T21:51:48.904Z,20.59
2022-09-14T21:54:16.018Z,20.44
2022-09-14T21:56:44.549Z,20.32
2022-09-14T21:59:18.562Z,20.30
2022-09-14T22:01:46.706Z,20.50
2022-09-14T22:04:31.475Z,20.52
2022-09-14T22:06:59.397Z,20.59
2022-09-14T22:09:28.945Z,20.66
2022-09-14T22:11:57.017Z,20.76
2022-09-14T22:14:27.027Z,20.79
2022-09-14T22:16:54.520Z,20.85
2022-09-14T22:19:27.279Z,20.62
2022-09-14T22:21:55.160Z,20.35
2022-09-14T22:24:37.179Z,20.66
2022-09-14T22:27:07.760Z,20.82
2022-09-14T22:29:34.768Z,20.85
2022-09-14T22:32:01.866Z,21.03
2022-09-14T22:34:29.036Z,20.96
2022-09-14T22:36:56.022Z,20.70
2022-09-14T22:39:23.018Z,20.46
2022-09-14T22:41:50.384Z,20.19
2022-09-14T22:44:17.307Z,19.94
2022-09-14T22:46:44.430Z,19.95
2022-09-14T22:49:11.447Z,20.27
2022-09-14T22:51:38.427Z,20.43
2022-09-14T22:54:05.647Z,20.56
2022-09-14T22:56:35.435Z,20.28
2022-09-14T22:59:09.293Z,20.15
2022-09-14T23:01:39.925Z,19.99
2022-09-14T23:04:10.469Z,20.30
2022-09-14T23:06:47.638Z,20.01
2022-09-14T23:09:21.100Z,19.60
2022-09-14T23:11:48.476Z,19.65
2022-09-14T23:14:16.589Z,19.88
2022-09-14T23:16:45.399Z,19.93
2022-09-14T23:19:17.806Z,20.02
2022-09-14T23:21:45.075Z,19.94
2022-09-14T23:29:26.071Z,19.95
2022-09-14T23:32:36.080Z,20.04
2022-09-14T23:35:23.154Z,19.89
2022-09-14T23:38:54.709Z,19.96
2022-09-14T23:42:06.341Z,20.12
2022-09-14T23:45:05.821Z,20.48
2022-09-14T23:48:29.945Z,20.35
2022-09-14T23:54:51.493Z,20.50
2022-09-14T23:58:10.940Z,20.65
